createdAt,value
2022-10-09T00:01:32.163Z,12.91
2022-10-09T00:02:30.036Z,12.83
2022-10-09T00:03:31.999Z,12.75
2022-10-09T00:04:32.324Z,12.73
2022-10-09T00:05:32.357Z,12.68
2022-10-09T00:06:33.030Z,12.72
2022-10-09T00:07:31.285Z,12.70
2022-10-09T00:08:33.483Z,12.70
2022-10-09T00:09:33.681Z,12.72
2022-10-09T00:10:32.189Z,12.75
2022-10-09T00:11:34.366Z,12.73
2022-10-09T00:12:34.545Z,12.72
2022-10-09T00:13:33.042Z,12.85
2022-10-09T00:14:33.341Z,12.83
2022-10-09T00:15:36.983Z,12.78
2022-10-09T00:16:35.761Z,12.79
2022-10-09T00:17:35.903Z,12.86
2022-10-09T00:18:34.522Z,12.87
2022-10-09T00:19:34.815Z,12.95
2022-10-09T00:20:35.108Z,12.94
2022-10-09T00:21:37.591Z,12.98
2022-10-09T00:22:37.282Z,12.98
2022-10-09T00:23:36.158Z,12.95
2022-10-09T00:24:36.289Z,12.97
2022-10-09T00:25:36.640Z,12.93
2022-10-09T00:26:36.900Z,12.83
2022-10-09T00:27:39.000Z,12.93
2022-10-09T00:28:38.854Z,12.94
2022-10-09T00:29:37.642Z,12.97
2022-10-09T00:30:37.989Z,13.04
2022-10-09T00:31:40.102Z,13.00
2022-10-09T00:32:40.291Z,13.00
2022-10-09T00:33:40.467Z,13.08
2022-10-09T00:34:40.663Z,13.09
2022-10-09T00:35:39.396Z,13.19
2022-10-09T00:36:39.714Z,13.18
2022-10-09T00:37:40.020Z,13.11
2022-10-09T00:38:42.207Z,13.08
2022-10-09T00:39:42.414Z,13.19
2022-10-09T00:40:40.832Z,13.16
2022-10-09T00:41:42.995Z,13.08
2022-10-09T00:42:41.356Z,13.03
2022-10-09T00:43:43.534Z,12.98
2022-10-09T00:44:43.722Z,13.00
2022-10-09T00:45:43.706Z,12.97
2022-10-09T00:46:42.549Z,12.98
2022-10-09T00:47:42.851Z,12.97
2022-10-09T00:48:43.148Z,12.91
2022-10-09T00:49:45.327Z,12.87
2022-10-09T00:50:44.518Z,12.85
2022-10-09T00:51:45.084Z,12.83
2022-10-09T00:52:44.324Z,12.82
2022-10-09T00:53:44.610Z,12.86
2022-10-09T00:54:46.792Z,12.80
2022-10-09T00:55:46.202Z,12.85
2022-10-09T00:56:45.429Z,12.90
2022-10-09T00:57:45.716Z,12.86
2022-10-09T00:58:46.004Z,12.87
2022-10-09T00:59:48.185Z,12.90
2022-10-09T01:00:47.541Z,12.79
2022-10-09T01:01:48.041Z,12.78
2022-10-09T01:02:47.523Z,12.73
2022-10-09T01:03:50.290Z,12.80
2022-10-09T01:04:50.481Z,12.78
2022-10-09T01:05:48.966Z,12.83
2022-10-09T01:06:49.123Z,12.70
2022-10-09T01:07:49.539Z,12.73
2022-10-09T01:08:50.775Z,12.62
2022-10-09T01:09:49.144Z,12.65
2022-10-09T01:10:50.411Z,12.68
2022-10-09T01:11:49.791Z,12.68
2022-10-09T01:12:50.290Z,12.64
2022-10-09T01:13:52.237Z,12.64
2022-10-09T01:14:50.606Z,12.62
2022-10-09T01:15:51.912Z,12.60
2022-10-09T01:16:53.119Z,12.58
2022-10-09T01:17:51.493Z,12.49
2022-10-09T01:18:54.623Z,12.42
2022-10-09T01:19:54.805Z,12.39
2022-10-09T01:20:55.009Z,12.40
2022-10-09T01:21:54.242Z,12.39
2022-10-09T01:22:52.979Z,12.39
2022-10-09T01:23:53.292Z,12.36
2022-10-09T01:24:53.589Z,12.39
2022-10-09T01:25:57.242Z,12.40
2022-10-09T01:26:57.433Z,12.39
2022-10-09T01:27:54.473Z,12.40
2022-10-09T01:28:54.760Z,12.42
2022-10-09T01:29:55.050Z,12.40
2022-10-09T01:30:56.316Z,12.39
2022-10-09T01:31:56.645Z,12.29
2022-10-09T01:32:56.871Z,12.24
2022-10-09T01:33:56.234Z,12.25
2022-10-09T01:34:58.431Z,12.24
2022-10-09T01:35:57.777Z,12.18
2022-10-09T01:36:59.004Z,12.18
2022-10-09T01:37:58.183Z,12.18
2022-10-09T01:38:58.605Z,12.15
2022-10-09T01:39:58.170Z,12.10
2022-10-09T01:40:59.172Z,12.06
2022-10-09T01:42:00.385Z,12.02
2022-10-09T01:42:58.635Z,11.95
2022-10-09T01:43:58.930Z,11.99
2022-10-09T01:45:01.110Z,11.91
2022-10-09T01:46:00.551Z,11.94
2022-10-09T01:46:59.723Z,11.88
2022-10-09T01:48:01.903Z,11.83
2022-10-09T01:49:02.087Z,11.80
2022-10-09T01:50:01.287Z,11.77
2022-10-09T01:51:01.876Z,11.78
2022-10-09T01:52:01.214Z,11.83
2022-10-09T01:53:03.410Z,11.78
2022-10-09T01:54:03.585Z,11.78
2022-10-09T01:55:03.777Z,11.80
2022-10-09T01:56:03.366Z,11.83
2022-10-09T01:57:04.990Z,11.86
2022-10-09T01:58:02.991Z,11.81
2022-10-09T01:59:03.287Z,11.72
2022-10-09T02:00:05.485Z,11.60
2022-10-09T02:01:05.658Z,11.48
2022-10-09T02:02:05.997Z,11.45
2022-10-09T02:03:06.079Z,11.45
2022-10-09T02:04:04.821Z,11.47
2022-10-09T02:05:07.137Z,11.55
2022-10-09T02:06:07.218Z,11.62
2022-10-09T02:07:05.734Z,11.66
2022-10-09T02:08:07.901Z,11.66
2022-10-09T02:09:06.267Z,11.65
2022-10-09T02:10:08.449Z,11.59
2022-10-09T02:11:08.626Z,11.68
2022-10-09T02:12:07.127Z,11.83
2022-10-09T02:13:09.317Z,11.78
2022-10-09T02:14:07.683Z,11.81
2022-10-09T02:15:08.300Z,11.97
2022-10-09T02:16:10.216Z,11.99
2022-10-09T02:17:08.566Z,12.04
2022-10-09T02:18:08.880Z,11.90
2022-10-09T02:19:09.165Z,11.87
2022-10-09T02:20:09.477Z,11.87
2022-10-09T02:21:09.793Z,11.87
2022-10-09T02:22:11.972Z,11.88
2022-10-09T02:23:10.356Z,11.81
2022-10-09T02:24:10.683Z,11.84
2022-10-09T02:25:10.981Z,11.91
2022-10-09T02:26:13.134Z,11.77
2022-10-09T02:27:11.536Z,11.83
2022-10-09T02:28:11.923Z,11.75
2022-10-09T02:29:12.070Z,11.68
2022-10-09T02:30:13.157Z,11.59
2022-10-09T02:31:13.681Z,11.48
2022-10-09T02:32:14.812Z,11.51
2022-10-09T02:33:13.206Z,11.55
2022-10-09T02:34:13.542Z,11.47
2022-10-09T02:35:14.724Z,11.35
2022-10-09T02:36:16.054Z,11.25
2022-10-09T02:37:16.242Z,11.12
2022-10-09T02:38:16.417Z,11.07
2022-10-09T02:39:16.600Z,11.02
2022-10-09T02:40:16.352Z,11.02
2022-10-09T02:41:15.590Z,10.99
2022-10-09T02:42:15.884Z,10.96
2022-10-09T02:43:16.194Z,10.97
2022-10-09T02:44:18.375Z,11.02
2022-10-09T02:45:18.700Z,10.99
2022-10-09T02:46:17.107Z,10.97
2022-10-09T02:47:17.364Z,10.93
2022-10-09T02:48:17.658Z,10.87
2022-10-09T02:49:19.848Z,10.82
2022-10-09T02:50:18.324Z,10.84
2022-10-09T02:51:20.421Z,10.84
2022-10-09T02:52:20.601Z,10.75
2022-10-09T02:53:19.126Z,10.69
2022-10-09T02:54:19.426Z,10.67
2022-10-09T02:55:22.591Z,10.63
2022-10-09T02:56:19.971Z,10.75
2022-10-09T02:57:22.131Z,10.82
2022-10-09T02:58:22.317Z,10.84
2022-10-09T02:59:20.803Z,10.82
2022-10-09T03:00:22.995Z,10.89
2022-10-09T03:01:23.174Z,10.86
2022-10-09T03:02:23.453Z,10.75
2022-10-09T03:03:23.521Z,10.71
2022-10-09T03:04:24.179Z,10.86
2022-10-09T03:05:25.316Z,10.94
2022-10-09T03:06:23.776Z,10.94
2022-10-09T03:07:23.146Z,10.93
2022-10-09T03:08:25.325Z,10.97
2022-10-09T03:09:26.716Z,10.96
2022-10-09T03:10:26.719Z,10.96
2022-10-09T03:11:24.213Z,10.99
2022-10-09T03:12:24.505Z,11.11
2022-10-09T03:13:27.648Z,11.15
2022-10-09T03:14:26.886Z,11.18
2022-10-09T03:15:28.059Z,11.22
2022-10-09T03:16:25.945Z,11.18
2022-10-09T03:17:27.002Z,11.15
2022-10-09T03:18:29.685Z,11.10
2022-10-09T03:19:27.400Z,11.10
2022-10-09T03:20:27.066Z,11.08
2022-10-09T03:21:29.402Z,11.04
2022-10-09T03:22:28.378Z,10.99
2022-10-09T03:23:29.606Z,10.99
2022-10-09T03:24:28.937Z,10.99
2022-10-09T03:25:28.353Z,10.97
2022-10-09T03:26:30.512Z,10.99
2022-10-09T03:27:31.414Z,11.02
2022-10-09T03:28:29.101Z,11.00
2022-10-09T03:29:32.697Z,10.97
2022-10-09T03:30:29.814Z,10.97
2022-10-09T03:31:52.477Z,11.02
2022-10-09T03:32:32.067Z,11.05
2022-10-09T03:33:31.371Z,11.05
2022-10-09T03:34:30.713Z,11.02
2022-10-09T03:35:31.996Z,10.96
2022-10-09T03:36:33.235Z,10.92
2022-10-09T03:37:32.569Z,10.81
2022-10-09T03:38:32.747Z,10.69
2022-10-09T03:39:33.160Z,10.63
2022-10-09T03:40:33.482Z,10.61
2022-10-09T03:41:33.825Z,10.59
2022-10-09T03:42:35.209Z,10.57
2022-10-09T03:43:33.446Z,10.56
2022-10-09T03:44:35.731Z,10.51
2022-10-09T03:45:34.887Z,10.46
2022-10-09T03:46:34.450Z,10.41
2022-10-09T03:47:35.564Z,10.46
2022-10-09T03:48:35.042Z,10.44
2022-10-09T03:49:37.228Z,10.37
2022-10-09T03:50:38.419Z,10.35
2022-10-09T03:51:37.629Z,10.30
2022-10-09T03:52:37.822Z,10.23
2022-10-09T03:53:38.508Z,10.13
2022-10-09T03:54:38.711Z,10.15
2022-10-09T03:55:39.912Z,10.19
2022-10-09T03:56:37.428Z,10.15
2022-10-09T03:57:39.640Z,10.12
2022-10-09T03:58:39.838Z,10.10
2022-10-09T03:59:40.229Z,10.10
2022-10-09T04:00:41.244Z,10.13
2022-10-09T04:01:39.862Z,10.07
2022-10-09T04:02:41.221Z,10.07
2022-10-09T04:03:40.344Z,10.12
2022-10-09T04:04:41.548Z,10.10
2022-10-09T04:05:41.743Z,10.12
2022-10-09T04:06:40.142Z,10.10
2022-10-09T04:07:40.429Z,10.01
2022-10-09T04:08:42.634Z,9.99
2022-10-09T04:09:41.799Z,10.04
2022-10-09T04:10:41.284Z,10.09
2022-10-09T04:11:41.586Z,10.15
2022-10-09T04:12:43.819Z,10.13
2022-10-09T04:13:42.187Z,10.10
2022-10-09T04:14:44.364Z,10.07
2022-10-09T04:15:42.968Z,10.04
2022-10-09T04:16:43.022Z,9.97
2022-10-09T04:17:43.296Z,9.95
2022-10-09T04:18:43.663Z,9.87
2022-10-09T04:19:45.841Z,9.80
2022-10-09T04:20:44.101Z,9.80
2022-10-09T04:21:46.294Z,9.82
2022-10-09T04:22:44.653Z,9.80
2022-10-09T04:23:45.829Z,9.79
2022-10-09T04:24:47.175Z,9.72
2022-10-09T04:25:45.411Z,9.72
2022-10-09T04:26:45.704Z,9.76
2022-10-09T04:27:47.881Z,9.74
2022-10-09T04:28:47.184Z,9.77
2022-10-09T04:29:46.566Z,9.77
2022-10-09T04:30:46.854Z,9.74
2022-10-09T04:31:49.141Z,9.72
2022-10-09T04:32:47.764Z,9.73
2022-10-09T04:33:50.502Z,9.76
2022-10-09T04:34:49.898Z,9.73
2022-10-09T04:35:48.386Z,9.74
2022-10-09T04:36:48.662Z,9.73
2022-10-09T04:37:48.939Z,9.72
2022-10-09T04:38:50.021Z,9.74
2022-10-09T04:39:51.422Z,9.69
2022-10-09T04:40:49.794Z,9.68
2022-10-09T04:41:50.079Z,9.68
2022-10-09T04:42:52.264Z,9.72
2022-10-09T04:43:51.698Z,9.76
2022-10-09T04:44:52.938Z,9.73
2022-10-09T04:45:53.178Z,9.73
2022-10-09T04:46:51.501Z,9.79
2022-10-09T04:47:51.799Z,9.79
2022-10-09T04:48:53.153Z,9.82
2022-10-09T04:49:54.355Z,9.83
2022-10-09T04:50:52.595Z,9.83
2022-10-09T04:51:52.898Z,9.84
2022-10-09T04:52:53.188Z,9.86
2022-10-09T04:53:56.177Z,9.91
2022-10-09T04:54:57.634Z,9.91
2022-10-09T04:55:54.038Z,9.94
2022-10-09T04:56:54.315Z,9.98
2022-10-09T04:57:56.522Z,9.94
2022-10-09T04:58:55.789Z,9.92
2022-10-09T04:59:55.940Z,9.89
2022-10-09T05:00:57.453Z,9.94
2022-10-09T05:01:55.803Z,9.84
2022-10-09T05:02:56.057Z,9.86
2022-10-09T05:03:57.348Z,9.89
2022-10-09T05:04:56.716Z,9.95
2022-10-09T05:05:58.898Z,9.91
2022-10-09T05:06:57.285Z,9.83
2022-10-09T05:07:57.566Z,9.79
2022-10-09T05:09:01.254Z,9.72
2022-10-09T05:09:58.130Z,9.73
2022-10-09T05:11:01.789Z,9.74
2022-10-09T05:12:01.965Z,9.77
2022-10-09T05:12:59.817Z,9.65
2022-10-09T05:14:00.230Z,9.59
2022-10-09T05:14:59.596Z,9.66
2022-10-09T05:16:01.795Z,9.69
2022-10-09T05:17:13.560Z,9.77
2022-10-09T05:18:02.405Z,9.69
2022-10-09T05:19:01.795Z,9.66
2022-10-09T05:20:01.972Z,9.66
2022-10-09T05:21:03.228Z,9.66
2022-10-09T05:22:03.409Z,9.65
2022-10-09T05:23:01.918Z,9.65
2022-10-09T05:24:07.179Z,9.64
2022-10-09T05:25:04.544Z,9.72
2022-10-09T05:26:03.684Z,9.72
2022-10-09T05:27:05.021Z,9.72
2022-10-09T05:28:05.358Z,9.65
2022-10-09T05:29:05.434Z,9.66
2022-10-09T05:30:04.846Z,9.64
2022-10-09T05:31:04.210Z,9.66
2022-10-09T05:32:06.467Z,9.62
2022-10-09T05:33:06.559Z,9.62
2022-10-09T05:34:07.735Z,9.68
2022-10-09T05:35:05.386Z,9.74
2022-10-09T05:36:05.756Z,9.79
2022-10-09T05:37:07.927Z,9.76
2022-10-09T05:38:06.295Z,9.79
2022-10-09T05:39:07.609Z,9.82
2022-10-09T05:40:06.862Z,9.82
2022-10-09T05:41:07.199Z,9.86
2022-10-09T05:42:09.379Z,9.84
2022-10-09T05:43:07.769Z,9.89
2022-10-09T05:44:08.885Z,9.92
2022-10-09T05:45:08.376Z,9.97
2022-10-09T05:46:10.587Z,9.97
2022-10-09T05:47:10.744Z,9.97
2022-10-09T05:48:10.920Z,9.97
2022-10-09T05:49:12.152Z,9.99
2022-10-09T05:50:13.325Z,10.09
2022-10-09T05:51:10.246Z,10.10
2022-10-09T05:52:12.423Z,10.12
2022-10-09T05:53:12.677Z,10.13
2022-10-09T05:54:12.910Z,10.13
2022-10-09T05:55:13.029Z,10.12
2022-10-09T05:56:11.685Z,10.10
2022-10-09T05:57:13.911Z,10.13
2022-10-09T05:58:14.074Z,10.20
2022-10-09T05:59:13.706Z,10.20
2022-10-09T06:00:14.383Z,10.34
2022-10-09T06:01:13.191Z,10.44
2022-10-09T06:02:13.421Z,10.44
2022-10-09T06:03:15.575Z,10.54
2022-10-09T06:04:16.756Z,10.56
2022-10-09T06:05:14.300Z,10.54
2022-10-09T06:06:14.646Z,10.57
2022-10-09T06:07:15.002Z,10.67
2022-10-09T06:08:17.157Z,10.74
2022-10-09T06:09:18.317Z,10.84
2022-10-09T06:10:15.746Z,10.90
2022-10-09T06:11:17.924Z,10.86
2022-10-09T06:12:16.336Z,10.86
2022-10-09T06:13:16.674Z,10.89
2022-10-09T06:14:19.827Z,10.86
2022-10-09T06:15:19.051Z,10.87
2022-10-09T06:16:17.642Z,10.93
2022-10-09T06:17:17.841Z,10.93
2022-10-09T06:18:18.189Z,11.05
2022-10-09T06:19:21.887Z,11.08
2022-10-09T06:20:18.684Z,11.12
2022-10-09T06:21:19.023Z,11.15
2022-10-09T06:22:21.215Z,11.17
2022-10-09T06:23:21.498Z,11.15
2022-10-09T06:24:25.774Z,11.19
2022-10-09T06:25:22.876Z,11.18
2022-10-09T06:26:20.545Z,11.22
2022-10-09T06:27:22.706Z,11.27
2022-10-09T06:28:21.152Z,11.30
2022-10-09T06:29:23.519Z,11.32
2022-10-09T06:30:21.676Z,11.32
2022-10-09T06:31:23.029Z,11.33
2022-10-09T06:32:22.319Z,11.44
2022-10-09T06:33:24.504Z,11.45
2022-10-09T06:34:25.689Z,11.52
2022-10-09T06:35:23.248Z,11.60
2022-10-09T06:36:25.429Z,11.70
2022-10-09T06:37:23.714Z,11.78
2022-10-09T06:38:24.061Z,11.78
2022-10-09T06:39:27.229Z,11.78
2022-10-09T06:40:24.647Z,11.87
2022-10-09T06:41:28.270Z,11.90
2022-10-09T06:42:25.324Z,11.99
2022-10-09T06:43:27.481Z,12.04
2022-10-09T06:44:28.641Z,12.13
2022-10-09T06:45:26.296Z,12.21
2022-10-09T06:46:28.411Z,12.25
2022-10-09T06:47:26.801Z,12.22
2022-10-09T06:48:29.002Z,12.24
2022-10-09T06:49:28.912Z,12.27
2022-10-09T06:50:27.891Z,12.32
2022-10-09T06:51:27.979Z,12.29
2022-10-09T06:52:30.145Z,12.28
2022-10-09T06:53:28.439Z,12.27
2022-10-09T06:54:31.623Z,12.21
2022-10-09T06:55:30.849Z,12.27
2022-10-09T06:56:30.116Z,12.28
2022-10-09T06:57:31.474Z,12.42
2022-10-09T06:58:29.747Z,12.43
2022-10-09T06:59:32.941Z,12.46
2022-10-09T07:00:30.359Z,12.46
2022-10-09T07:01:33.545Z,12.55
2022-10-09T07:02:32.914Z,12.65
2022-10-09T07:03:31.187Z,12.67
2022-10-09T07:04:32.432Z,12.95
2022-10-09T07:05:33.758Z,13.23
2022-10-09T07:06:33.002Z,13.53
2022-10-09T07:07:35.724Z,13.62
2022-10-09T07:08:35.900Z,13.47
2022-10-09T07:09:35.594Z,13.31
2022-10-09T07:10:34.155Z,13.23
2022-10-09T07:11:35.328Z,13.41
2022-10-09T07:12:35.775Z,13.31
2022-10-09T07:13:34.896Z,13.53
2022-10-09T07:14:36.242Z,13.85
2022-10-09T07:15:35.475Z,14.20
2022-10-09T07:16:35.815Z,14.23
2022-10-09T07:17:35.198Z,14.41
2022-10-09T07:18:37.532Z,14.47
2022-10-09T07:19:38.484Z,14.45
2022-10-09T07:20:36.149Z,14.51
2022-10-09T07:21:36.478Z,14.53
2022-10-09T07:22:37.604Z,14.91
2022-10-09T07:23:38.996Z,14.77
2022-10-09T07:24:38.442Z,14.84
2022-10-09T07:25:39.572Z,14.92
2022-10-09T07:26:38.922Z,14.99
2022-10-09T07:27:40.149Z,14.78
2022-10-09T07:28:38.602Z,15.02
2022-10-09T07:29:41.783Z,14.89
2022-10-09T07:30:40.923Z,15.19
2022-10-09T07:31:41.490Z,15.02
2022-10-09T07:32:39.771Z,14.91
2022-10-09T07:33:41.954Z,15.03
2022-10-09T07:34:40.367Z,14.88
2022-10-09T07:35:40.721Z,14.97
2022-10-09T07:36:41.903Z,15.14
2022-10-09T07:37:43.065Z,15.43
2022-10-09T07:38:43.260Z,15.67
2022-10-09T07:39:44.980Z,15.80
2022-10-09T07:40:44.094Z,16.00
2022-10-09T07:41:44.161Z,16.15
2022-10-09T07:42:44.355Z,16.29
2022-10-09T07:43:45.488Z,16.38
2022-10-09T07:44:44.195Z,16.49
2022-10-09T07:45:44.633Z,16.38
2022-10-09T07:46:44.798Z,16.50
2022-10-09T07:47:45.129Z,16.68
2022-10-09T07:48:47.843Z,16.66
2022-10-09T07:49:44.756Z,16.90
2022-10-09T07:50:45.095Z,17.39
2022-10-09T07:51:46.341Z,17.57
2022-10-09T07:52:45.781Z,17.60
2022-10-09T07:53:48.901Z,17.23
2022-10-09T07:54:46.327Z,17.27
2022-10-09T07:55:46.678Z,17.01
2022-10-09T07:56:46.892Z,16.71
2022-10-09T07:57:48.070Z,16.99
2022-10-09T07:58:50.383Z,17.15
2022-10-09T07:59:47.794Z,16.90
2022-10-09T08:00:49.990Z,16.84
2022-10-09T08:01:48.426Z,17.02
2022-10-09T08:02:49.910Z,17.09
2022-10-09T08:03:52.298Z,17.20
2022-10-09T08:04:51.029Z,17.08
2022-10-09T08:05:49.460Z,16.99
2022-10-09T08:06:49.683Z,17.26
2022-10-09T08:07:50.474Z,17.51
2022-10-09T08:08:51.109Z,17.78
2022-10-09T08:09:51.454Z,18.03
2022-10-09T08:10:50.934Z,17.98
2022-10-09T08:11:51.155Z,17.82
2022-10-09T08:12:51.891Z,17.30
2022-10-09T08:13:52.693Z,17.04
2022-10-09T08:14:54.050Z,16.93
2022-10-09T08:15:52.382Z,17.23
2022-10-09T08:16:52.575Z,17.33
2022-10-09T08:17:52.812Z,17.54
2022-10-09T08:18:53.223Z,17.97
2022-10-09T08:19:55.389Z,18.33
2022-10-09T08:20:53.686Z,18.37
2022-10-09T08:21:53.910Z,18.20
2022-10-09T08:22:54.144Z,18.44
2022-10-09T08:23:55.301Z,18.16
2022-10-09T08:24:56.485Z,17.01
2022-10-09T08:25:56.552Z,16.86
2022-10-09T08:26:55.220Z,16.60
2022-10-09T08:27:55.440Z,16.15
2022-10-09T08:28:56.612Z,15.94
2022-10-09T08:29:57.994Z,15.79
2022-10-09T08:30:58.266Z,16.20
2022-10-09T08:31:58.388Z,16.35
2022-10-09T08:32:56.817Z,16.28
2022-10-09T08:33:57.354Z,16.61
2022-10-09T08:34:57.357Z,16.78
2022-10-09T08:36:00.989Z,16.57
2022-10-09T08:36:58.710Z,16.13
2022-10-09T08:37:59.893Z,16.32
2022-10-09T08:38:59.497Z,16.60
2022-10-09T08:39:58.778Z,16.74
2022-10-09T08:40:59.128Z,17.12
2022-10-09T08:41:59.351Z,17.19
2022-10-09T08:43:01.548Z,17.31
2022-10-09T08:44:00.805Z,16.96
2022-10-09T08:45:00.099Z,17.23
2022-10-09T08:46:02.303Z,17.79
2022-10-09T08:47:00.840Z,17.65
2022-10-09T08:48:02.765Z,18.22
2022-10-09T08:49:02.674Z,18.60
2022-10-09T08:50:01.456Z,18.59
2022-10-09T08:51:03.640Z,18.78
2022-10-09T08:52:02.162Z,18.29
2022-10-09T08:53:02.392Z,18.20
2022-10-09T08:54:03.433Z,18.25
2022-10-09T08:55:05.895Z,18.62
2022-10-09T08:56:03.208Z,18.37
2022-10-09T08:57:05.380Z,18.22
2022-10-09T08:58:03.887Z,18.15
2022-10-09T08:59:03.950Z,18.63
2022-10-09T09:00:04.265Z,19.11
2022-10-09T09:01:06.383Z,19.40
2022-10-09T09:02:04.871Z,19.56
2022-10-09T09:03:05.157Z,18.58
2022-10-09T09:04:06.312Z,17.76
2022-10-09T09:05:09.030Z,17.05
2022-10-09T09:06:07.732Z,16.76
2022-10-09T09:07:07.913Z,17.09
2022-10-09T09:08:06.454Z,17.36
2022-10-09T09:09:06.706Z,17.74
2022-10-09T09:10:07.781Z,17.48
2022-10-09T09:11:07.198Z,17.54
2022-10-09T09:12:07.570Z,17.67
2022-10-09T09:13:10.686Z,18.04
2022-10-09T09:14:08.114Z,17.95
2022-10-09T09:15:08.343Z,18.29
2022-10-09T09:16:08.690Z,19.07
2022-10-09T09:17:08.890Z,19.51
2022-10-09T09:18:09.564Z,19.79
2022-10-09T09:19:11.268Z,19.21
2022-10-09T09:20:10.645Z,18.56
2022-10-09T09:21:10.892Z,19.24
2022-10-09T09:22:10.983Z,19.69
2022-10-09T09:23:12.368Z,19.73
2022-10-09T09:24:12.542Z,18.99
2022-10-09T09:25:12.729Z,17.79
2022-10-09T09:26:12.359Z,17.70
2022-10-09T09:27:12.557Z,17.76
2022-10-09T09:28:12.934Z,17.42
2022-10-09T09:29:13.125Z,18.00
2022-10-09T09:30:14.422Z,17.86
2022-10-09T09:31:12.880Z,17.92
2022-10-09T09:32:13.091Z,18.19
2022-10-09T09:33:15.255Z,18.45
2022-10-09T09:34:15.415Z,18.29
2022-10-09T09:35:13.985Z,18.45
2022-10-09T09:36:16.190Z,18.47
2022-10-09T09:37:16.395Z,18.28
2022-10-09T09:38:16.576Z,18.07
2022-10-09T09:40:36.170Z,18.18
2022-10-09T09:41:17.498Z,17.71
2022-10-09T09:42:16.114Z,17.12
2022-10-09T09:43:18.843Z,16.91
2022-10-09T09:44:16.516Z,17.33
2022-10-09T09:45:16.741Z,17.23
2022-10-09T09:46:17.109Z,16.79
2022-10-09T09:47:18.312Z,16.39
2022-10-09T09:48:19.467Z,16.29
2022-10-09T09:49:18.010Z,17.02
2022-10-09T09:50:42.406Z,17.51
2022-10-09T09:51:28.892Z,17.97
2022-10-09T09:52:23.292Z,17.52
2022-10-09T09:53:19.095Z,17.49
2022-10-09T09:54:19.312Z,18.01
2022-10-09T09:55:19.552Z,18.11
2022-10-09T09:56:21.740Z,18.50
2022-10-09T09:57:22.253Z,18.44
2022-10-09T09:58:22.113Z,18.60
2022-10-09T09:59:20.779Z,18.95
2022-10-09T10:00:22.948Z,18.77
2022-10-09T10:01:23.150Z,19.14
2022-10-09T10:02:22.634Z,19.18
2022-10-09T10:03:23.884Z,19.27
2022-10-09T10:04:22.291Z,19.19
2022-10-09T10:05:24.474Z,19.19
2022-10-09T10:06:24.667Z,19.09
2022-10-09T10:07:23.297Z,19.49
2022-10-09T10:08:25.358Z,19.58
2022-10-09T10:09:23.792Z,19.31
2022-10-09T10:10:26.083Z,19.64
2022-10-09T10:11:24.358Z,19.31
2022-10-09T10:12:25.383Z,19.48
2022-10-09T10:13:24.914Z,19.64
2022-10-09T10:14:25.138Z,19.94
2022-10-09T10:15:25.480Z,20.39
2022-10-09T10:16:27.771Z,19.47
2022-10-09T10:17:27.838Z,19.30
2022-10-09T10:18:26.498Z,19.55
2022-10-09T10:19:26.846Z,19.86
2022-10-09T10:20:27.065Z,20.00
2022-10-09T10:21:27.409Z,19.88
2022-10-09T10:22:29.613Z,19.49
2022-10-09T10:23:29.331Z,19.64
2022-10-09T10:24:28.240Z,19.18
2022-10-09T10:25:28.579Z,18.56
2022-10-09T10:26:28.937Z,18.59
2022-10-09T10:27:30.088Z,18.45
2022-10-09T10:28:31.461Z,18.62
2022-10-09T10:29:29.827Z,19.21
2022-10-09T10:30:30.164Z,18.81
2022-10-09T10:31:32.383Z,19.07
2022-10-09T10:32:30.672Z,19.39
2022-10-09T10:33:30.889Z,19.04
2022-10-09T10:34:33.052Z,18.56
2022-10-09T10:35:32.215Z,19.14
2022-10-09T10:36:33.400Z,18.43
2022-10-09T10:37:32.104Z,18.31
2022-10-09T10:38:32.335Z,18.26
2022-10-09T10:39:32.584Z,18.10
2022-10-09T10:40:34.905Z,18.52
2022-10-09T10:41:34.972Z,18.41
2022-10-09T10:42:34.286Z,18.75
2022-10-09T10:43:33.683Z,18.89
2022-10-09T10:44:33.921Z,18.92
2022-10-09T10:45:36.107Z,19.40
2022-10-09T10:46:34.465Z,19.84
2022-10-09T10:47:34.735Z,20.81
2022-10-09T10:48:34.976Z,20.74
2022-10-09T10:49:35.204Z,21.12
2022-10-09T10:50:37.383Z,21.32
2022-10-09T10:51:35.669Z,20.51
2022-10-09T10:52:39.310Z,20.26
2022-10-09T10:53:38.049Z,20.39
2022-10-09T10:54:36.586Z,20.04
2022-10-09T10:55:38.769Z,20.58
2022-10-09T10:56:37.188Z,20.78
2022-10-09T10:57:37.464Z,21.37
2022-10-09T10:58:39.640Z,20.36
2022-10-09T10:59:37.936Z,19.48
2022-10-09T11:00:41.633Z,19.27
2022-10-09T11:01:41.244Z,19.77
2022-10-09T11:02:41.991Z,20.24
2022-10-09T11:03:39.048Z,19.76
2022-10-09T11:04:42.641Z,19.89
2022-10-09T11:05:39.593Z,20.47
2022-10-09T11:06:41.770Z,20.50
2022-10-09T11:07:41.960Z,20.52
2022-10-09T11:08:40.369Z,20.75
2022-10-09T11:09:40.719Z,20.11
2022-10-09T11:10:42.902Z,19.92
2022-10-09T11:11:41.191Z,19.86
2022-10-09T11:12:48.288Z,19.69
2022-10-09T11:13:44.537Z,20.07
2022-10-09T11:14:42.980Z,20.95
2022-10-09T11:15:44.332Z,21.33
2022-10-09T11:16:43.604Z,21.20
2022-10-09T11:17:44.932Z,21.60
2022-10-09T11:18:44.133Z,21.27
2022-10-09T11:19:45.599Z,21.30
2022-10-09T11:20:45.894Z,21.20
2022-10-09T11:21:44.246Z,21.33
2022-10-09T11:22:46.618Z,20.75
2022-10-09T11:23:45.706Z,20.95
2022-10-09T11:24:45.861Z,21.14
2022-10-09T11:25:47.204Z,21.17
2022-10-09T11:26:46.438Z,20.87
2022-10-09T11:27:47.329Z,20.51
2022-10-09T11:28:46.165Z,20.43
2022-10-09T11:29:46.369Z,19.94
2022-10-09T11:30:48.548Z,20.09
2022-10-09T11:31:46.940Z,20.28
2022-10-09T11:32:47.923Z,20.29
2022-10-09T11:33:49.351Z,20.32
2022-10-09T11:34:47.787Z,19.79
2022-10-09T11:35:48.042Z,19.73
2022-10-09T11:36:50.212Z,19.63
2022-10-09T11:37:50.752Z,19.89
2022-10-09T11:38:49.221Z,19.82
2022-10-09T11:39:49.966Z,19.85
2022-10-09T11:40:50.192Z,19.58
2022-10-09T11:41:51.418Z,19.96
2022-10-09T11:42:52.579Z,19.74
2022-10-09T11:43:50.011Z,19.45
2022-10-09T11:44:50.243Z,19.02
2022-10-09T11:45:52.470Z,18.80
2022-10-09T11:46:51.601Z,18.63
2022-10-09T11:47:52.971Z,18.50
2022-10-09T11:48:51.580Z,19.26
2022-10-09T11:49:53.775Z,19.47
2022-10-09T11:50:52.200Z,19.56
2022-10-09T11:51:54.383Z,19.29
2022-10-09T11:52:55.524Z,19.52
2022-10-09T11:53:54.766Z,19.63
2022-10-09T11:54:54.954Z,19.49
2022-10-09T11:55:55.117Z,19.59
2022-10-09T11:56:55.802Z,19.67
2022-10-09T11:57:56.089Z,19.82
2022-10-09T11:58:56.206Z,19.91
2022-10-09T11:59:56.387Z,19.77
2022-10-09T12:00:56.643Z,19.91
2022-10-09T12:01:57.274Z,19.95
2022-10-09T12:02:57.425Z,19.91
2022-10-09T12:04:00.546Z,20.03
2022-10-09T12:04:56.150Z,20.06
2022-10-09T12:05:56.385Z,19.58
2022-10-09T12:06:56.623Z,19.99
2022-10-09T12:07:56.967Z,19.82
2022-10-09T12:08:59.147Z,19.82
2022-10-09T12:09:58.471Z,19.82
2022-10-09T12:10:57.746Z,19.52
2022-10-09T12:11:59.897Z,19.54
2022-10-09T12:13:00.082Z,19.70
2022-10-09T12:14:00.258Z,19.84
2022-10-09T12:15:00.449Z,19.73
2022-10-09T12:15:59.259Z,19.51
2022-10-09T12:16:59.651Z,19.48
2022-10-09T12:17:59.878Z,19.54
2022-10-09T12:19:00.100Z,20.10
2022-10-09T12:20:02.504Z,20.40
2022-10-09T12:21:00.691Z,20.29
2022-10-09T12:22:00.911Z,20.31
2022-10-09T12:24:02.428Z,19.58
2022-10-09T12:25:05.073Z,19.36
2022-10-09T12:26:03.822Z,19.31
2022-10-09T12:27:02.331Z,19.40
2022-10-09T12:28:02.737Z,19.71
2022-10-09T12:29:03.005Z,19.99
2022-10-09T12:30:04.174Z,19.51
2022-10-09T12:31:05.393Z,19.55
2022-10-09T12:32:05.510Z,19.39
2022-10-09T12:33:05.684Z,19.52
2022-10-09T12:34:04.355Z,19.29
2022-10-09T12:35:08.007Z,19.63
2022-10-09T12:36:04.950Z,19.40
2022-10-09T12:37:05.173Z,19.67
2022-10-09T12:38:07.355Z,19.69
2022-10-09T12:39:05.648Z,20.00
2022-10-09T12:40:07.879Z,20.24
2022-10-09T12:41:06.186Z,19.67
2022-10-09T12:42:06.414Z,19.95
2022-10-09T12:43:06.652Z,19.45
2022-10-09T12:44:08.824Z,19.48
2022-10-09T12:45:09.014Z,20.13
2022-10-09T12:46:07.467Z,19.94
2022-10-09T12:47:07.663Z,19.84
2022-10-09T12:48:07.902Z,19.74
2022-10-09T12:49:10.090Z,19.59
2022-10-09T12:50:10.276Z,19.91
2022-10-09T12:51:08.819Z,19.66
2022-10-09T12:52:11.003Z,19.95
2022-10-09T12:53:09.311Z,19.77
2022-10-09T12:54:09.528Z,19.21
2022-10-09T12:55:11.799Z,19.40
2022-10-09T12:56:09.993Z,19.45
2022-10-09T12:57:12.174Z,19.56
2022-10-09T12:58:10.460Z,19.39
2022-10-09T12:59:10.700Z,19.85
2022-10-09T13:00:10.946Z,19.52
2022-10-09T13:01:14.372Z,19.73
2022-10-09T13:02:11.660Z,19.70